Aviation Digital Data Service (ADDS)

Output produced by METARs form (1109 UTC 24 May 2015)
found at http://aviationweather.gov/adds/metars/
 
KDCA 240836Z 2409/2506 21005KT P6SM FEW080 
     FM241800 19009KT P6SM SCT060